sensor_id;sensor_type;location;lat;lon;timestamp;pressure;altitude;pressure_sealevel;temperature;humidity
7050;BME280;22263;52.260;10.548;2023-10-31T00:00:55;98458.34;;;13.17;100.00
7050;BME280;22263;52.260;10.548;2023-10-31T00:03:24;98451.56;;;13.30;100.00
7050;BME280;22263;52.260;10.548;2023-10-31T00:05:54;98455.03;;;13.22;100.00
7050;BME280;22263;52.260;10.548;2023-10-31T00:08:24;98458.47;;;13.26;100.00
7050;BME280;22263;52.260;10.548;2023-10-31T00:10:57;98458.69;;;13.19;100.00
7050;BME280;22263;52.260;10.548;2023-10-31T00:13:27;98455.69;;;13.26;100.00
7050;BME280;22263;52.260;10.548;2023-10-31T00:15:57;98452.56;;;13.24;100.00
7050;BME280;22263;52.260;10.548;2023-10-31T00:18:29;98455.34;;;12.98;100.00
7050;BME280;22263;52.260;10.548;2023-10-31T00:20:59;98446.34;;;13.07;100.00
7050;BME280;22263;52.260;10.548;2023-10-31T00:23:29;98449.34;;;13.25;100.00
7050;BME280;22263;52.260;10.548;2023-10-31T00:26:01;98447.91;;;13.21;100.00
7050;BME280;22263;52.260;10.548;2023-10-31T00:28:31;98449.03;;;13.23;100.00
7050;BME280;22263;52.260;10.548;2023-10-31T00:31:02;98449.47;;;13.22;100.00
7050;BME280;22263;52.260;10.548;2023-10-31T00:33:40;98451.56;;;13.30;100.00
7050;BME280;22263;52.260;10.548;2023-10-31T00:36:10;98443.34;;;13.27;100.00
7050;BME280;22263;52.260;10.548;2023-10-31T00:38:40;98449.59;;;13.18;100.00
7050;BME280;22263;52.260;10.548;2023-10-31T00:41:12;98437.25;;;13.32;100.00
7050;BME280;22263;52.260;10.548;2023-10-31T00:43:42;98448.81;;;13.18;100.00
7050;BME280;22263;52.260;10.548;2023-10-31T00:46:12;98434.47;;;13.19;100.00
7050;BME280;22263;52.260;10.548;2023-10-31T00:48:44;98434.81;;;13.21;100.00
7050;BME280;22263;52.260;10.548;2023-10-31T00:51:14;98440.72;;;13.23;100.00
7050;BME280;22263;52.260;10.548;2023-10-31T00:53:45;98437.38;;;13.16;100.00
7050;BME280;22263;52.260;10.548;2023-10-31T00:56:18;98438.94;;;13.04;100.00
7050;BME280;22263;52.260;10.548;2023-10-31T00:58:48;98439.06;;;13.13;100.00
7050;BME280;22263;52.260;10.548;2023-10-31T01:01:18;98437.25;;;13.06;100.00
7050;BME280;22263;52.260;10.548;2023-10-31T01:03:48;98437.50;;;13.12;100.00
7050;BME280;22263;52.260;10.548;2023-10-31T01:06:18;98429.56;;;13.10;100.00
7050;BME280;22263;52.260;10.548;2023-10-31T01:08:48;98432.91;;;13.05;100.00
7050;BME280;22263;52.260;10.548;2023-10-31T01:11:20;98431.34;;;13.04;100.00
7050;BME280;22263;52.260;10.548;2023-10-31T01:13:50;98428.03;;;12.97;100.00
7050;BME280;22263;52.260;10.548;2023-10-31T01:16:20;98416.16;;;13.09;100.00
7050;BME280;22263;52.260;10.548;2023-10-31T01:18:50;98411.75;;;13.12;100.00
7050;BME280;22263;52.260;10.548;2023-10-31T01:21:20;98414.03;;;13.00;100.00
7050;BME280;22263;52.260;10.548;2023-10-31T01:23:50;98407.28;;;13.01;100.00
7050;BME280;22263;52.260;10.548;2023-10-31T01:26:22;98406.19;;;12.99;100.00
7050;BME280;22263;52.260;10.548;2023-10-31T01:28:53;98403.03;;;13.09;100.00
7050;BME280;22263;52.260;10.548;2023-10-31T01:31:23;98402.19;;;13.13;100.00
7050;BME280;22263;52.260;10.548;2023-10-31T01:33:53;98399.94;;;13.07;100.00
7050;BME280;22263;52.260;10.548;2023-10-31T01:36:24;98404.06;;;12.90;100.00
7050;BME280;22263;52.260;10.548;2023-10-31T01:38:54;98396.31;;;12.85;100.00
7050;BME280;22263;52.260;10.548;2023-10-31T01:41:27;98391.63;;;13.07;100.00
7050;BME280;22263;52.260;10.548;2023-10-31T01:43:57;98396.53;;;13.16;100.00
7050;BME280;22263;52.260;10.548;2023-10-31T01:46:29;98395.50;;;13.10;100.00
7050;BME280;22263;52.260;10.548;2023-10-31T01:49:05;98387.63;;;13.21;100.00
7050;BME280;22263;52.260;10.548;2023-10-31T01:51:35;98383.09;;;13.15;100.00
7050;BME280;22263;52.260;10.548;2023-10-31T01:54:05;98372.19;;;13.07;100.00
7050;BME280;22263;52.260;10.548;2023-10-31T01:56:38;98371.41;;;13.07;100.00
7050;BME280;22263;52.260;10.548;2023-10-31T01:59:08;98373.22;;;13.14;100.00
7050;BME280;22263;52.260;10.548;2023-10-31T02:01:39;98365.44;;;13.08;100.00
7050;BME280;22263;52.260;10.548;2023-10-31T02:04:09;98368.44;;;13.01;100.00
7050;BME280;22263;52.260;10.548;2023-10-31T02:06:39;98353.66;;;13.17;100.00
7050;BME280;22263;52.260;10.548;2023-10-31T02:09:09;98349.56;;;13.09;100.00
7050;BME280;22263;52.260;10.548;2023-10-31T02:11:41;98341.81;;;13.04;100.00
7050;BME280;22263;52.260;10.548;2023-10-31T02:14:12;98342.25;;;13.02;100.00
7050;BME280;22263;52.260;10.548;2023-10-31T02:16:41;98343.47;;;13.01;100.00
7050;BME280;22263;52.260;10.548;2023-10-31T02:19:12;98337.34;;;13.06;100.00
7050;BME280;22263;52.260;10.548;2023-10-31T02:21:48;98340.00;;;13.10;100.00
7050;BME280;22263;52.260;10.548;2023-10-31T02:24:19;98340.22;;;13.16;100.00
7050;BME280;22263;52.260;10.548;2023-10-31T02:26:49;98337.59;;;13.12;100.00
7050;BME280;22263;52.260;10.548;2023-10-31T02:29:19;98336.81;;;13.12;100.00
7050;BME280;22263;52.260;10.548;2023-10-31T02:31:49;98333.47;;;13.04;100.00
7050;BME280;22263;52.260;10.548;2023-10-31T02:34:19;98326.28;;;12.94;100.00
7050;BME280;22263;52.260;10.548;2023-10-31T02:36:52;98326.03;;;13.14;100.00
7050;BME280;22263;52.260;10.548;2023-10-31T02:39:22;98319.25;;;13.02;100.00
7050;BME280;22263;52.260;10.548;2023-10-31T02:41:52;98323.63;;;12.90;100.00
7050;BME280;22263;52.260;10.548;2023-10-31T02:44:21;98312.59;;;13.12;100.00
7050;BME280;22263;52.260;10.548;2023-10-31T02:46:51;98321.69;;;13.00;100.00
7050;BME280;22263;52.260;10.548;2023-10-31T02:49:22;98314.81;;;13.17;100.00
7050;BME280;22263;52.260;10.548;2023-10-31T02:51:55;98309.34;;;13.26;100.00
7050;BME280;22263;52.260;10.548;2023-10-31T02:54:24;98303.06;;;13.35;100.00
7050;BME280;22263;52.260;10.548;2023-10-31T02:56:54;98306.06;;;13.40;100.00
7050;BME280;22263;52.260;10.548;2023-10-31T02:59:24;98296.44;;;13.32;100.00
7050;BME280;22263;52.260;10.548;2023-10-31T03:01:56;98293.53;;;13.36;100.00
7050;BME280;22263;52.260;10.548;2023-10-31T03:04:29;98294.53;;;13.29;100.00
7050;BME280;22263;52.260;10.548;2023-10-31T03:07:01;98298.88;;;13.30;100.00
7050;BME280;22263;52.260;10.548;2023-10-31T03:09:31;98301.34;;;13.28;100.00
7050;BME280;22263;52.260;10.548;2023-10-31T03:12:03;98309.69;;;13.16;100.00
7050;BME280;22263;52.260;10.548;2023-10-31T03:14:33;98312.38;;;13.06;100.00
7050;BME280;22263;52.260;10.548;2023-10-31T03:17:03;98310.81;;;13.05;100.00
7050;BME280;22263;52.260;10.548;2023-10-31T03:19:33;98307.72;;;13.16;100.00
7050;BME280;22263;52.260;10.548;2023-10-31T03:22:06;98299.59;;;13.22;100.00
7050;BME280;22263;52.260;10.548;2023-10-31T03:24:36;98300.31;;;13.35;100.00
7050;BME280;22263;52.260;10.548;2023-10-31T03:27:06;98297.53;;;13.35;100.00
7050;BME280;22263;52.260;10.548;2023-10-31T03:29:36;98301.53;;;13.34;100.00
7050;BME280;22263;52.260;10.548;2023-10-31T03:32:06;98298.50;;;13.41;100.00
7050;BME280;22263;52.260;10.548;2023-10-31T03:34:37;98305.06;;;13.34;100.00
7050;BME280;22263;52.260;10.548;2023-10-31T03:37:09;98304.84;;;13.41;100.00
7050;BME280;22263;52.260;10.548;2023-10-31T03:39:39;98309.13;;;13.21;100.00
7050;BME280;22263;52.260;10.548;2023-10-31T03:42:09;98299.78;;;13.27;100.00
7050;BME280;22263;52.260;10.548;2023-10-31T03:44:39;98302.31;;;13.34;100.00
7050;BME280;22263;52.260;10.548;2023-10-31T03:47:09;98305.56;;;13.20;100.00
7050;BME280;22263;52.260;10.548;2023-10-31T03:49:39;98308.78;;;13.31;100.00
7050;BME280;22263;52.260;10.548;2023-10-31T03:52:11;98307.53;;;13.32;100.00
7050;BME280;22263;52.260;10.548;2023-10-31T03:54:42;98297.88;;;13.37;100.00
7050;BME280;22263;52.260;10.548;2023-10-31T03:57:12;98301.00;;;13.48;100.00
7050;BME280;22263;52.260;10.548;2023-10-31T03:59:42;98307.84;;;13.34;100.00
7050;BME280;22263;52.260;10.548;2023-10-31T04:02:12;98303.28;;;13.40;100.00
7050;BME280;22263;52.260;10.548;2023-10-31T04:04:42;98304.94;;;13.16;100.00
7050;BME280;22263;52.260;10.548;2023-10-31T04:07:14;98300.84;;;13.08;100.00
7050;BME280;22263;52.260;10.548;2023-10-31T04:09:44;98311.59;;;13.19;100.00
7050;BME280;22263;52.260;10.548;2023-10-31T04:12:14;98308.13;;;13.27;100.00
7050;BME280;22263;52.260;10.548;2023-10-31T04:14:44;98308.56;;;13.26;100.00
7050;BME280;22263;52.260;10.548;2023-10-31T04:17:14;98324.00;;;13.27;100.00
7050;BME280;22263;52.260;10.548;2023-10-31T04:19:44;98334.06;;;13.33;100.00
7050;BME280;22263;52.260;10.548;2023-10-31T04:22:16;98339.88;;;13.26;100.00
7050;BME280;22263;52.260;10.548;2023-10-31T04:24:46;98338.81;;;13.11;100.00
7050;BME280;22263;52.260;10.548;2023-10-31T04:27:15;98351.47;;;12.87;100.00
7050;BME280;22263;52.260;10.548;2023-10-31T04:29:45;98363.91;;;12.82;100.00
7050;BME280;22263;52.260;10.548;2023-10-31T04:32:16;98362.94;;;12.63;100.00
7050;BME280;22263;52.260;10.548;2023-10-31T04:34:46;98374.47;;;12.62;100.00
7050;BME280;22263;52.260;10.548;2023-10-31T04:37:18;98366.34;;;12.42;100.00
7050;BME280;22263;52.260;10.548;2023-10-31T04:39:48;98366.34;;;12.42;100.00
7050;BME280;22263;52.260;10.548;2023-10-31T04:42:18;98373.69;;;12.49;100.00
7050;BME280;22263;52.260;10.548;2023-10-31T04:44:49;98368.81;;;12.40;100.00
7050;BME280;22263;52.260;10.548;2023-10-31T04:47:19;98376.47;;;12.49;100.00
7050;BME280;22263;52.260;10.548;2023-10-31T04:49:49;98382.31;;;12.38;100.00
7050;BME280;22263;52.260;10.548;2023-10-31T04:52:22;98391.72;;;12.28;100.00
7050;BME280;22263;52.260;10.548;2023-10-31T04:54:52;98409.63;;;12.40;100.00
7050;BME280;22263;52.260;10.548;2023-10-31T04:57:22;98423.03;;;12.41;100.00
7050;BME280;22263;52.260;10.548;2023-10-31T04:59:52;98405.50;;;12.32;100.00
7050;BME280;22263;52.260;10.548;2023-10-31T05:02:24;98391.19;;;12.33;100.00
7050;BME280;22263;52.260;10.548;2023-10-31T05:04:55;98391.88;;;12.37;100.00
7050;BME280;22263;52.260;10.548;2023-10-31T05:07:28;98395.41;;;12.38;100.00
7050;BME280;22263;52.260;10.548;2023-10-31T05:09:59;98398.19;;;12.38;100.00
7050;BME280;22263;52.260;10.548;2023-10-31T05:12:29;98411.25;;;12.24;100.00
7050;BME280;22263;52.260;10.548;2023-10-31T05:14:59;98402.69;;;12.19;100.00
7050;BME280;22263;52.260;10.548;2023-10-31T05:17:29;98403.59;;;12.16;100.00
7050;BME280;22263;52.260;10.548;2023-10-31T05:19:59;98409.25;;;12.25;100.00
7050;BME280;22263;52.260;10.548;2023-10-31T05:22:32;98405.16;;;12.17;100.00
7050;BME280;22263;52.260;10.548;2023-10-31T05:25:02;98409.25;;;12.25;100.00
7050;BME280;22263;52.260;10.548;2023-10-31T05:27:32;98398.72;;;12.20;100.00
7050;BME280;22263;52.260;10.548;2023-10-31T05:30:02;98414.91;;;12.21;100.00
7050;BME280;22263;52.260;10.548;2023-10-31T05:32:32;98413.53;;;12.13;100.00
7050;BME280;22263;52.260;10.548;2023-10-31T05:35:02;98412.38;;;12.27;100.00
7050;BME280;22263;52.260;10.548;2023-10-31T05:37:35;98412.69;;;12.16;100.00
7050;BME280;22263;52.260;10.548;2023-10-31T05:40:06;98414.31;;;12.14;100.00
7050;BME280;22263;52.260;10.548;2023-10-31T05:42:36;98417.13;;;12.27;100.00
7050;BME280;22263;52.260;10.548;2023-10-31T05:45:06;98421.09;;;12.13;100.00
7050;BME280;22263;52.260;10.548;2023-10-31T05:47:36;98427.03;;;12.40;100.00
7050;BME280;22263;52.260;10.548;2023-10-31T05:50:07;98442.50;;;12.25;100.00
7050;BME280;22263;52.260;10.548;2023-10-31T05:52:40;98450.31;;;12.43;100.00
7050;BME280;22263;52.260;10.548;2023-10-31T05:55:10;98453.72;;;12.34;100.00
7050;BME280;22263;52.260;10.548;2023-10-31T05:57:40;98457.13;;;12.13;100.00
7050;BME280;22263;52.260;10.548;2023-10-31T06:00:11;98453.16;;;12.27;100.00
7050;BME280;22263;52.260;10.548;2023-10-31T06:02:41;98458.72;;;12.27;100.00
7050;BME280;22263;52.260;10.548;2023-10-31T06:05:11;98472.31;;;12.21;100.00
7050;BME280;22263;52.260;10.548;2023-10-31T06:07:43;98459.00;;;12.16;100.00
7050;BME280;22263;52.260;10.548;2023-10-31T06:10:13;98458.53;;;12.05;100.00
7050;BME280;22263;52.260;10.548;2023-10-31T06:12:43;98462.84;;;12.06;100.00
7050;BME280;22263;52.260;10.548;2023-10-31T06:15:13;98450.56;;;12.07;100.00
7050;BME280;22263;52.260;10.548;2023-10-31T06:17:43;98455.75;;;12.05;100.00
7050;BME280;22263;52.260;10.548;2023-10-31T06:20:13;98468.16;;;12.00;100.00
7050;BME280;22263;52.260;10.548;2023-10-31T06:22:45;98461.16;;;11.96;100.00
7050;BME280;22263;52.260;10.548;2023-10-31T06:25:15;98469.22;;;11.90;100.00
7050;BME280;22263;52.260;10.548;2023-10-31T06:27:45;98474.75;;;11.90;100.00
7050;BME280;22263;52.260;10.548;2023-10-31T06:30:15;98475.81;;;11.80;100.00
7050;BME280;22263;52.260;10.548;2023-10-31T06:32:54;98477.47;;;11.77;100.00
7050;BME280;22263;52.260;10.548;2023-10-31T06:35:24;98484.03;;;11.67;100.00
7050;BME280;22263;52.260;10.548;2023-10-31T06:37:57;98491.84;;;11.72;100.00
7050;BME280;22263;52.260;10.548;2023-10-31T06:40:27;98500.84;;;11.60;100.00
7050;BME280;22263;52.260;10.548;2023-10-31T06:42:56;98511.03;;;11.63;100.00
7050;BME280;22263;52.260;10.548;2023-10-31T06:45:26;98503.41;;;11.67;100.00
7050;BME280;22263;52.260;10.548;2023-10-31T06:47:56;98515.09;;;11.59;100.00
7050;BME280;22263;52.260;10.548;2023-10-31T06:50:26;98517.00;;;11.62;100.00
7050;BME280;22263;52.260;10.548;2023-10-31T06:52:58;98513.22;;;11.56;100.00
7050;BME280;22263;52.260;10.548;2023-10-31T06:55:28;98518.56;;;11.63;100.00
7050;BME280;22263;52.260;10.548;2023-10-31T06:57:58;98518.56;;;11.63;100.00
7050;BME280;22263;52.260;10.548;2023-10-31T07:00:28;98521.75;;;11.61;100.00
7050;BME280;22263;52.260;10.548;2023-10-31T07:02:58;98526.28;;;11.55;100.00
7050;BME280;22263;52.260;10.548;2023-10-31T07:05:32;98525.75;;;11.60;100.00
7050;BME280;22263;52.260;10.548;2023-10-31T07:08:04;98530.78;;;11.65;100.00
7050;BME280;22263;52.260;10.548;2023-10-31T07:10:34;98521.59;;;11.68;100.00
7050;BME280;22263;52.260;10.548;2023-10-31T07:13:04;98532.31;;;11.66;100.00
7050;BME280;22263;52.260;10.548;2023-10-31T07:15:34;98528.19;;;11.74;100.00
7050;BME280;22263;52.260;10.548;2023-10-31T07:18:06;98532.56;;;11.72;100.00
7050;BME280;22263;52.260;10.548;2023-10-31T07:20:36;98528.19;;;11.74;100.00
7050;BME280;22263;52.260;10.548;2023-10-31T07:23:08;98530.19;;;11.74;100.00
7050;BME280;22263;52.260;10.548;2023-10-31T07:25:38;98542.78;;;11.91;100.00
7050;BME280;22263;52.260;10.548;2023-10-31T07:28:08;98546.59;;;11.81;100.00
7050;BME280;22263;52.260;10.548;2023-10-31T07:30:38;98542.00;;;11.91;100.00
7050;BME280;22263;52.260;10.548;2023-10-31T07:33:07;98546.75;;;11.90;100.00
7050;BME280;22263;52.260;10.548;2023-10-31T07:35:37;98549.63;;;11.87;100.00
7050;BME280;22263;52.260;10.548;2023-10-31T07:38:09;98556.47;;;11.82;100.00
7050;BME280;22263;52.260;10.548;2023-10-31T07:40:39;98562.44;;;11.97;100.00
7050;BME280;22263;52.260;10.548;2023-10-31T07:43:09;98567.28;;;11.93;100.00
7050;BME280;22263;52.260;10.548;2023-10-31T07:45:39;98555.16;;;12.03;100.00
7050;BME280;22263;52.260;10.548;2023-10-31T07:48:09;98539.38;;;12.00;100.00
7050;BME280;22263;52.260;10.548;2023-10-31T07:50:39;98555.22;;;11.99;100.00
7050;BME280;22263;52.260;10.548;2023-10-31T07:53:11;98548.22;;;11.95;100.00
7050;BME280;22263;52.260;10.548;2023-10-31T07:55:41;98544.66;;;12.10;100.00
7050;BME280;22263;52.260;10.548;2023-10-31T07:58:11;98547.53;;;12.07;100.00
7050;BME280;22263;52.260;10.548;2023-10-31T08:00:41;98567.97;;;12.13;100.00
7050;BME280;22263;52.260;10.548;2023-10-31T08:03:10;98549.78;;;12.12;100.00
7050;BME280;22263;52.260;10.548;2023-10-31T08:05:40;98550.59;;;12.25;100.00
7050;BME280;22263;52.260;10.548;2023-10-31T08:08:13;98560.41;;;12.13;100.00
7050;BME280;22263;52.260;10.548;2023-10-31T08:10:43;98571.41;;;12.17;100.00
7050;BME280;22263;52.260;10.548;2023-10-31T08:13:13;98572.25;;;12.14;100.00
7050;BME280;22263;52.260;10.548;2023-10-31T08:15:43;98583.84;;;12.25;100.00
7050;BME280;22263;52.260;10.548;2023-10-31T08:18:13;98577.19;;;12.22;100.00
7050;BME280;22263;52.260;10.548;2023-10-31T08:20:43;98582.41;;;12.20;100.00
7050;BME280;22263;52.260;10.548;2023-10-31T08:23:18;98588.09;;;12.30;100.00
7050;BME280;22263;52.260;10.548;2023-10-31T08:25:48;98585.84;;;12.24;100.00
7050;BME280;22263;52.260;10.548;2023-10-31T08:28:18;98584.94;;;12.44;100.00
7050;BME280;22263;52.260;10.548;2023-10-31T08:30:48;98583.97;;;12.50;100.00
7050;BME280;22263;52.260;10.548;2023-10-31T08:33:18;98586.25;;;12.39;100.00
7050;BME280;22263;52.260;10.548;2023-10-31T08:35:48;98589.28;;;12.57;100.00
7050;BME280;22263;52.260;10.548;2023-10-31T08:38:20;98600.25;;;12.48;100.00
7050;BME280;22263;52.260;10.548;2023-10-31T08:40:58;98593.13;;;12.47;100.00
7050;BME280;22263;52.260;10.548;2023-10-31T08:43:31;98603.69;;;12.52;100.00
7050;BME280;22263;52.260;10.548;2023-10-31T08:46:01;98601.63;;;12.56;100.00
7050;BME280;22263;52.260;10.548;2023-10-31T08:48:31;98604.19;;;12.63;100.00
7050;BME280;22263;52.260;10.548;2023-10-31T08:51:01;98615.53;;;12.40;100.00
7050;BME280;22263;52.260;10.548;2023-10-31T08:53:34;98617.91;;;12.54;100.00
7050;BME280;22263;52.260;10.548;2023-10-31T08:56:04;98625.97;;;12.49;100.00
7050;BME280;22263;52.260;10.548;2023-10-31T08:58:35;98633.47;;;12.64;100.00
7050;BME280;22263;52.260;10.548;2023-10-31T09:01:05;98639.34;;;12.66;100.00
7050;BME280;22263;52.260;10.548;2023-10-31T09:03:35;98654.59;;;12.75;100.00
7050;BME280;22263;52.260;10.548;2023-10-31T09:06:05;98668.19;;;12.40;100.00
7050;BME280;22263;52.260;10.548;2023-10-31T09:08:37;98684.50;;;12.22;100.00
7050;BME280;22263;52.260;10.548;2023-10-31T09:11:07;98687.69;;;12.04;100.00
7050;BME280;22263;52.260;10.548;2023-10-31T09:13:37;98698.84;;;11.85;100.00
7050;BME280;22263;52.260;10.548;2023-10-31T09:16:07;98693.16;;;11.72;100.00
7050;BME280;22263;52.260;10.548;2023-10-31T09:18:37;98700.59;;;11.78;100.00
7050;BME280;22263;52.260;10.548;2023-10-31T09:21:08;98697.91;;;11.91;100.00
7050;BME280;22263;52.260;10.548;2023-10-31T09:23:40;98698.69;;;11.92;100.00
7050;BME280;22263;52.260;10.548;2023-10-31T09:26:10;98715.31;;;11.92;100.00
7050;BME280;22263;52.260;10.548;2023-10-31T09:28:40;98717.66;;;11.93;100.00
7050;BME280;22263;52.260;10.548;2023-10-31T09:31:17;98712.88;;;12.10;100.00
7050;BME280;22263;52.260;10.548;2023-10-31T09:33:47;98713.00;;;12.22;100.00
7050;BME280;22263;52.260;10.548;2023-10-31T09:36:17;98709.16;;;12.49;100.00
7050;BME280;22263;52.260;10.548;2023-10-31T09:38:49;98712.53;;;12.56;100.00
7050;BME280;22263;52.260;10.548;2023-10-31T09:41:19;98719.34;;;12.68;100.00
7050;BME280;22263;52.260;10.548;2023-10-31T09:43:49;98718.84;;;13.31;100.00
7050;BME280;22263;52.260;10.548;2023-10-31T09:46:21;98717.13;;;14.25;100.00
7050;BME280;22263;52.260;10.548;2023-10-31T09:48:50;98710.66;;;14.88;100.00
7050;BME280;22263;52.260;10.548;2023-10-31T09:51:21;98719.56;;;14.96;100.00
7050;BME280;22263;52.260;10.548;2023-10-31T09:53:54;98724.34;;;14.61;100.00
7050;BME280;22263;52.260;10.548;2023-10-31T09:56:24;98718.28;;;14.03;100.00
7050;BME280;22263;52.260;10.548;2023-10-31T09:59:01;98730.53;;;14.05;100.00
7050;BME280;22263;52.260;10.548;2023-10-31T10:01:31;98728.91;;;14.29;100.00
7050;BME280;22263;52.260;10.548;2023-10-31T10:04:01;98738.63;;;14.00;100.00
7050;BME280;22263;52.260;10.548;2023-10-31T10:06:31;98733.16;;;14.21;100.00
7050;BME280;22263;52.260;10.548;2023-10-31T10:09:04;98747.59;;;14.54;100.00
7050;BME280;22263;52.260;10.548;2023-10-31T10:11:36;98754.59;;;14.59;100.00
7050;BME280;22263;52.260;10.548;2023-10-31T10:14:06;98758.25;;;15.15;100.00
7050;BME280;22263;52.260;10.548;2023-10-31T10:16:38;98740.81;;;15.24;100.00
7050;BME280;22263;52.260;10.548;2023-10-31T10:19:18;98743.78;;;14.73;100.00
7050;BME280;22263;52.260;10.548;2023-10-31T10:21:51;98754.19;;;13.97;100.00
7050;BME280;22263;52.260;10.548;2023-10-31T10:24:24;98759.50;;;13.91;100.00
7050;BME280;22263;52.260;10.548;2023-10-31T10:26:54;98751.50;;;13.81;100.00
7050;BME280;22263;52.260;10.548;2023-10-31T10:29:24;98759.03;;;13.68;100.00
7050;BME280;22263;52.260;10.548;2023-10-31T10:31:54;98762.22;;;13.53;100.00
7050;BME280;22263;52.260;10.548;2023-10-31T10:34:24;98777.69;;;13.54;100.00
7050;BME280;22263;52.260;10.548;2023-10-31T10:36:55;98778.94;;;13.79;100.00
7050;BME280;22263;52.260;10.548;2023-10-31T10:39:29;98774.16;;;13.67;100.00
7050;BME280;22263;52.260;10.548;2023-10-31T10:42:06;98779.72;;;13.67;100.00
7050;BME280;22263;52.260;10.548;2023-10-31T10:44:43;98783.84;;;13.75;100.00
7050;BME280;22263;52.260;10.548;2023-10-31T10:47:17;98803.03;;;13.69;100.00
7050;BME280;22263;52.260;10.548;2023-10-31T10:49:52;98790.53;;;13.48;100.00
7050;BME280;22263;52.260;10.548;2023-10-31T10:52:38;98804.25;;;13.27;100.00
7050;BME280;22263;52.260;10.548;2023-10-31T10:55:13;98818.81;;;13.31;100.00
7050;BME280;22263;52.260;10.548;2023-10-31T10:57:55;98816.66;;;13.06;100.00
7050;BME280;22263;52.260;10.548;2023-10-31T11:00:26;98810.06;;;13.00;100.00
7050;BME280;22263;52.260;10.548;2023-10-31T11:02:56;98824.66;;;13.04;100.00
7050;BME280;22263;52.260;10.548;2023-10-31T11:05:26;98811.47;;;12.92;100.00
7050;BME280;22263;52.260;10.548;2023-10-31T11:07:57;98813.38;;;13.11;100.00
7050;BME280;22263;52.260;10.548;2023-10-31T11:10:30;98825.31;;;13.24;100.00
7050;BME280;22263;52.260;10.548;2023-10-31T11:13:00;98804.00;;;13.50;100.00
7050;BME280;22263;52.260;10.548;2023-10-31T11:15:30;98814.47;;;14.00;100.00
7050;BME280;22263;52.260;10.548;2023-10-31T11:18:01;98798.47;;;14.42;100.00
7050;BME280;22263;52.260;10.548;2023-10-31T11:20:32;98800.91;;;14.27;100.00
7050;BME280;22263;52.260;10.548;2023-10-31T11:23:02;98793.47;;;14.37;100.00
7050;BME280;22263;52.260;10.548;2023-10-31T11:25:42;98812.03;;;14.27;100.00
7050;BME280;22263;52.260;10.548;2023-10-31T11:28:14;98801.69;;;14.28;100.00
7050;BME280;22263;52.260;10.548;2023-10-31T11:30:48;98798.13;;;14.15;100.00
7050;BME280;22263;52.260;10.548;2023-10-31T11:33:24;98783.09;;;14.12;100.00
7050;BME280;22263;52.260;10.548;2023-10-31T11:36:00;98792.09;;;14.16;100.00
7050;BME280;22263;52.260;10.548;2023-10-31T11:38:35;98803.00;;;14.11;100.00
7050;BME280;22263;52.260;10.548;2023-10-31T11:41:09;98802.66;;;13.96;100.00
7050;BME280;22263;52.260;10.548;2023-10-31T11:43:52;98796.19;;;13.86;100.00
7050;BME280;22263;52.260;10.548;2023-10-31T11:46:23;98805.78;;;13.98;100.00
7050;BME280;22263;52.260;10.548;2023-10-31T11:48:56;98804.44;;;13.90;100.00
7050;BME280;22263;52.260;10.548;2023-10-31T11:51:27;98812.09;;;13.98;100.00
7050;BME280;22263;52.260;10.548;2023-10-31T11:53:57;98803.59;;;13.64;100.00
7050;BME280;22263;52.260;10.548;2023-10-31T11:56:31;98830.94;;;13.37;100.00
7050;BME280;22263;52.260;10.548;2023-10-31T11:59:03;98839.94;;;13.41;100.00
7050;BME280;22263;52.260;10.548;2023-10-31T12:01:44;98831.47;;;13.32;100.00
7050;BME280;22263;52.260;10.548;2023-10-31T12:04:21;98834.56;;;13.34;100.00
7050;BME280;22263;52.260;10.548;2023-10-31T12:06:58;98827.53;;;13.45;100.00
7050;BME280;22263;52.260;10.548;2023-10-31T12:09:32;98835.34;;;13.34;100.00
7050;BME280;22263;52.260;10.548;2023-10-31T12:12:05;98842.84;;;13.37;100.00
7050;BME280;22263;52.260;10.548;2023-10-31T12:14:35;98841.75;;;13.47;100.00
7050;BME280;22263;52.260;10.548;2023-10-31T12:17:07;98850.09;;;13.47;100.00
7050;BME280;22263;52.260;10.548;2023-10-31T12:19:37;98852.03;;;13.34;100.00
7050;BME280;22263;52.260;10.548;2023-10-31T12:22:12;98859.16;;;13.19;100.00
7050;BME280;22263;52.260;10.548;2023-10-31T12:24:43;98830.97;;;13.21;100.00
7050;BME280;22263;52.260;10.548;2023-10-31T12:27:15;98855.09;;;13.07;100.00
7050;BME280;22263;52.260;10.548;2023-10-31T12:29:45;98866.78;;;13.15;100.00
7050;BME280;22263;52.260;10.548;2023-10-31T12:32:15;98874.00;;;13.13;100.00
7050;BME280;22263;52.260;10.548;2023-10-31T12:34:45;98882.25;;;13.16;100.00
7050;BME280;22263;52.260;10.548;2023-10-31T12:37:17;98867.50;;;13.03;100.00
7050;BME280;22263;52.260;10.548;2023-10-31T12:39:46;98887.09;;;13.12;100.00
7050;BME280;22263;52.260;10.548;2023-10-31T12:42:20;98884.25;;;13.16;100.00
7050;BME280;22263;52.260;10.548;2023-10-31T12:44:56;98886.38;;;13.24;100.00
7050;BME280;22263;52.260;10.548;2023-10-31T12:47:26;98883.88;;;13.30;100.00
7050;BME280;22263;52.260;10.548;2023-10-31T12:50:07;98899.69;;;13.17;100.00
7050;BME280;22263;52.260;10.548;2023-10-31T12:52:55;98895.75;;;13.14;100.00
7050;BME280;22263;52.260;10.548;2023-10-31T12:55:27;98904.25;;;13.07;100.00
7050;BME280;22263;52.260;10.548;2023-10-31T12:58:00;98906.94;;;13.10;100.00
7050;BME280;22263;52.260;10.548;2023-10-31T13:00:31;98913.91;;;13.19;100.00
7050;BME280;22263;52.260;10.548;2023-10-31T13:03:04;98925.44;;;13.17;100.00
7050;BME280;22263;52.260;10.548;2023-10-31T13:05:35;98931.78;;;13.18;100.00
7050;BME280;22263;52.260;10.548;2023-10-31T13:08:13;98932.28;;;13.29;100.00
7050;BME280;22263;52.260;10.548;2023-10-31T13:10:44;98931.78;;;13.18;100.00